YMM weather

Fort McMurray Airport
Fort McMurray, Alberta, Canada

Public forecast

Using degrees Celsius for public forecast. Weather courtesy of forecast.io.

METAR (pilot weather report)

Retrieved 2019/05/20 19:00 UTC (2 minutes ago):

CYMM 201900Z AUTO 20008G17KT 130V210 9SM CLR 20/M02 A3002 RMK SLP175 DENSITY ALT 1900FT

TAF (pilot weather forecast)

Retrieved 2019/05/20 19:42 UTC (0 seconds ago):

TAF CYMM 201838Z 2019/2107 16012G22KT P6SM SKC BECMG 2101/2103 16012KT BECMG 2105/2107 16008KT RMK FCST BASED ON AUTO OBS. NXT FCST BY 210100Z